createdAt,value
2023-03-25T00:01:18.309Z,98157.00
2023-03-25T00:03:50.900Z,98154.00
2023-03-25T00:06:22.162Z,98141.00
2023-03-25T00:08:53.115Z,98130.00
2023-03-25T00:11:24.190Z,98126.00
2023-03-25T00:13:55.219Z,98121.00
2023-03-25T00:16:26.465Z,98125.00
2023-03-25T00:19:00.120Z,98128.00
2023-03-25T00:21:33.570Z,98120.00
2023-03-25T00:24:04.672Z,98119.00
2023-03-25T00:26:36.055Z,98123.00
2023-03-25T00:29:06.943Z,98117.00
2023-03-25T00:31:37.965Z,98127.00
2023-03-25T00:34:09.948Z,98130.00
2023-03-25T00:36:43.801Z,98129.00
2023-03-25T00:39:14.695Z,98122.00
2023-03-25T00:41:45.528Z,98120.00
2023-03-25T00:44:17.265Z,98127.00
2023-03-25T00:46:48.106Z,98123.00
2023-03-25T00:49:19.091Z,98124.00
2023-03-25T00:51:52.916Z,98119.00
2023-03-25T00:54:24.855Z,98115.00
2023-03-25T00:56:56.198Z,98109.00
2023-03-25T00:59:27.149Z,98098.00
2023-03-25T01:01:58.702Z,98087.00
2023-03-25T01:04:29.808Z,98090.00
2023-03-25T01:07:01.622Z,98089.00
2023-03-25T01:09:32.528Z,98088.00
2023-03-25T01:12:03.497Z,98079.00
2023-03-25T01:14:34.881Z,98093.00
2023-03-25T01:17:06.432Z,98088.00
2023-03-25T01:19:37.401Z,98097.00
2023-03-25T01:22:08.261Z,98098.00
2023-03-25T01:24:39.250Z,98105.00
2023-03-25T01:27:10.233Z,98094.00
2023-03-25T01:29:41.289Z,98105.00
2023-03-25T01:32:12.175Z,98085.00
2023-03-25T01:34:43.674Z,98089.00
2023-03-25T01:37:15.200Z,98077.00
2023-03-25T01:39:46.274Z,98081.00
2023-03-25T01:42:17.108Z,98079.00
2023-03-25T01:44:47.930Z,98083.00
2023-03-25T01:47:18.931Z,98070.00
2023-03-25T01:49:50.204Z,98069.00
2023-03-25T01:52:26.332Z,98076.00
2023-03-25T01:54:59.028Z,98074.00
2023-03-25T01:57:31.488Z,98075.00
2023-03-25T02:00:03.218Z,98059.00
2023-03-25T02:02:40.174Z,98055.00
2023-03-25T02:05:25.390Z,98040.00
2023-03-25T02:07:57.947Z,98042.00
2023-03-25T02:10:29.525Z,98043.00
2023-03-25T02:13:01.622Z,98038.00
2023-03-25T02:15:52.566Z,98042.00
2023-03-25T02:18:39.119Z,98045.00
2023-03-25T02:21:50.289Z,98046.00
2023-03-25T02:24:55.398Z,98054.00
2023-03-25T02:27:45.927Z,98052.00
2023-03-25T02:30:46.324Z,98063.00
2023-03-25T02:34:08.599Z,98065.00
2023-03-25T02:37:20.287Z,98075.00
2023-03-25T02:39:59.802Z,98093.00
2023-03-25T02:42:56.895Z,98086.00
2023-03-25T02:45:33.906Z,98091.00
2023-03-25T02:48:53.777Z,98102.00
2023-03-25T02:51:41.176Z,98140.00
2023-03-25T02:54:15.650Z,98169.00
2023-03-25T02:56:49.355Z,98159.00
2023-03-25T02:59:22.181Z,98140.00
2023-03-25T03:01:58.599Z,98132.00
2023-03-25T03:04:29.541Z,98119.00
2023-03-25T03:07:01.090Z,98094.00
2023-03-25T03:09:56.739Z,98090.00
2023-03-25T03:12:58.684Z,98100.00
2023-03-25T03:16:01.177Z,98099.00
2023-03-25T03:18:52.032Z,98087.00
2023-03-25T03:21:38.642Z,98084.00
2023-03-25T03:24:39.300Z,98084.00
2023-03-25T03:27:28.461Z,98080.00
2023-03-25T03:30:10.810Z,98080.00
2023-03-25T03:32:57.671Z,98080.00
2023-03-25T03:35:57.484Z,98100.00
2023-03-25T03:38:38.919Z,98095.00
2023-03-25T03:41:15.406Z,98091.00
2023-03-25T03:43:56.278Z,98085.00
2023-03-25T03:46:48.540Z,98106.00
2023-03-25T03:49:28.737Z,98122.00
2023-03-25T03:52:17.114Z,98133.00
2023-03-25T03:54:56.497Z,98132.00
2023-03-25T03:57:33.892Z,98128.00
2023-03-25T04:00:17.998Z,98128.00
2023-03-25T04:02:56.116Z,98138.00
2023-03-25T04:05:30.817Z,98130.00
2023-03-25T04:08:32.728Z,98145.00
2023-03-25T04:11:14.401Z,98139.00
2023-03-25T04:13:49.742Z,98130.00
2023-03-25T04:16:20.753Z,98137.00
2023-03-25T04:18:53.686Z,98152.00
2023-03-25T04:21:25.492Z,98148.00
2023-03-25T04:23:56.326Z,98146.00
2023-03-25T04:26:33.754Z,98144.00
2023-03-25T04:29:05.524Z,98141.00
2023-03-25T04:31:37.813Z,98133.00
2023-03-25T04:34:10.496Z,98143.00
2023-03-25T04:36:44.576Z,98131.00
2023-03-25T04:39:17.771Z,98133.00
2023-03-25T04:42:03.247Z,98129.00
2023-03-25T04:44:38.956Z,98132.00
2023-03-25T04:47:16.208Z,98136.00
2023-03-25T04:49:48.102Z,98139.00
2023-03-25T04:52:18.972Z,98132.00
2023-03-25T04:54:49.823Z,98129.00
2023-03-25T04:57:21.041Z,98132.00
2023-03-25T04:59:51.935Z,98139.00
2023-03-25T05:02:24.026Z,98144.00
2023-03-25T05:05:02.105Z,98137.00
2023-03-25T05:07:33.398Z,98135.00
2023-03-25T05:10:04.957Z,98144.00
2023-03-25T05:12:35.808Z,98142.00
2023-03-25T05:15:08.175Z,98153.00
2023-03-25T05:17:39.529Z,98148.00
2023-03-25T05:20:11.667Z,98154.00
2023-03-25T05:22:43.231Z,98152.00
2023-03-25T05:25:14.071Z,98154.00
2023-03-25T05:27:46.394Z,98155.00
2023-03-25T05:30:17.475Z,98166.00
2023-03-25T05:32:50.827Z,98155.00
2023-03-25T05:35:27.609Z,98172.00
2023-03-25T05:37:58.472Z,98157.00
2023-03-25T05:40:29.512Z,98164.00
2023-03-25T05:43:00.489Z,98167.00
2023-03-25T05:45:31.400Z,98162.00
2023-03-25T05:48:03.530Z,98163.00
2023-03-25T05:50:37.300Z,98169.00
2023-03-25T05:53:15.404Z,98163.00
2023-03-25T05:55:47.604Z,98162.00
2023-03-25T05:58:19.615Z,98167.00
2023-03-25T06:00:50.975Z,98171.00
2023-03-25T06:03:22.171Z,98164.00
2023-03-25T06:05:53.398Z,98165.00
2023-03-25T06:08:26.217Z,98166.00
2023-03-25T06:11:00.848Z,98167.00
2023-03-25T06:13:33.955Z,98181.00
2023-03-25T06:16:09.734Z,98176.00
2023-03-25T06:18:40.597Z,98179.00
2023-03-25T06:21:11.563Z,98192.00
2023-03-25T06:23:42.385Z,98194.00
2023-03-25T06:26:13.219Z,98187.00
2023-03-25T06:28:44.573Z,98170.00
2023-03-25T06:31:19.112Z,98175.00
2023-03-25T06:33:51.174Z,98207.00
2023-03-25T06:36:22.519Z,98180.00
2023-03-25T06:38:54.187Z,98184.00
2023-03-25T06:41:25.897Z,98178.00
2023-03-25T06:43:56.878Z,98204.00
2023-03-25T06:46:27.845Z,98179.00
2023-03-25T06:48:58.752Z,98194.00
2023-03-25T06:51:29.803Z,98188.00
2023-03-25T06:54:00.906Z,98193.00
2023-03-25T06:56:31.872Z,98190.00
2023-03-25T06:59:02.885Z,98197.00
2023-03-25T07:01:33.799Z,98195.00
2023-03-25T07:04:04.964Z,98196.00
2023-03-25T07:06:35.945Z,98195.00
2023-03-25T07:09:06.794Z,98195.00
2023-03-25T07:11:37.799Z,98206.00
2023-03-25T07:14:08.637Z,98197.00
2023-03-25T07:16:39.625Z,98193.00
2023-03-25T07:19:10.794Z,98199.00
2023-03-25T07:21:41.820Z,98199.00
2023-03-25T07:24:12.658Z,98211.00
2023-03-25T07:26:43.492Z,98205.00
2023-03-25T07:29:14.323Z,98191.00
2023-03-25T07:31:46.755Z,98193.00
2023-03-25T07:34:17.809Z,98194.00
2023-03-25T07:36:48.746Z,98191.00
2023-03-25T07:39:19.608Z,98193.00
2023-03-25T07:41:53.232Z,98193.00
2023-03-25T07:44:24.115Z,98183.00
2023-03-25T07:46:55.094Z,98196.00
2023-03-25T07:49:26.270Z,98203.00
2023-03-25T07:51:57.132Z,98194.00
2023-03-25T07:54:28.532Z,98177.00
2023-03-25T07:57:00.391Z,98187.00
2023-03-25T07:59:31.315Z,98186.00
2023-03-25T08:02:02.718Z,98180.00
2023-03-25T08:04:33.714Z,98180.00
2023-03-25T08:07:04.670Z,98179.00
2023-03-25T08:09:35.701Z,98171.00
2023-03-25T08:12:08.260Z,98172.00
2023-03-25T08:14:39.130Z,98154.00
2023-03-25T08:17:10.180Z,98169.00
2023-03-25T08:19:41.103Z,98167.00
2023-03-25T08:22:12.032Z,98161.00
2023-03-25T08:24:42.855Z,98172.00
2023-03-25T08:27:16.619Z,98181.00
2023-03-25T08:29:54.396Z,98168.00
2023-03-25T08:32:27.276Z,98169.00
2023-03-25T08:34:58.176Z,98177.00
2023-03-25T08:37:30.714Z,98172.00
2023-03-25T08:40:07.237Z,98173.00
2023-03-25T08:42:38.646Z,98174.00
2023-03-25T08:45:10.947Z,98177.00
2023-03-25T08:47:43.203Z,98178.00
2023-03-25T08:50:14.208Z,98187.00
2023-03-25T08:52:46.091Z,98182.00
2023-03-25T08:55:17.761Z,98194.00
2023-03-25T08:57:48.672Z,98199.00
2023-03-25T09:00:24.282Z,98202.00
2023-03-25T09:02:57.599Z,98211.00
2023-03-25T09:05:28.590Z,98212.00
2023-03-25T09:07:59.459Z,98214.00
2023-03-25T09:10:30.413Z,98220.00
2023-03-25T09:13:01.256Z,98223.00
2023-03-25T09:15:32.451Z,98211.00
2023-03-25T09:18:03.723Z,98198.00
2023-03-25T09:20:34.617Z,98188.00
2023-03-25T09:23:05.625Z,98184.00
2023-03-25T09:25:37.803Z,98193.00
2023-03-25T09:28:09.006Z,98191.00
2023-03-25T09:30:39.926Z,98195.00
2023-03-25T09:33:12.111Z,98189.00
2023-03-25T09:35:43.289Z,98191.00
2023-03-25T09:38:14.191Z,98210.00
2023-03-25T09:40:46.286Z,98191.00
2023-03-25T09:43:39.065Z,98176.00
2023-03-25T09:46:10.735Z,98170.00
2023-03-25T09:48:47.952Z,98170.00
2023-03-25T09:51:41.223Z,98168.00
2023-03-25T09:54:32.313Z,98173.00
2023-03-25T09:57:09.401Z,98155.00
2023-03-25T09:59:50.358Z,98165.00
2023-03-25T10:02:43.847Z,98178.00
2023-03-25T10:05:51.157Z,98175.00
2023-03-25T10:09:10.006Z,98166.00
2023-03-25T10:12:14.684Z,98180.00
2023-03-25T10:15:08.554Z,98165.00
2023-03-25T10:18:27.892Z,98163.00
2023-03-25T10:21:13.614Z,98160.00
2023-03-25T10:24:17.410Z,98148.00
2023-03-25T10:27:04.358Z,98159.00
2023-03-25T10:29:55.509Z,98154.00
2023-03-25T10:32:40.822Z,98145.00
2023-03-25T10:35:21.383Z,98137.00
2023-03-25T10:38:24.353Z,98135.00
2023-03-25T10:41:24.780Z,98139.00
2023-03-25T10:43:55.953Z,98138.00
2023-03-25T10:46:46.852Z,98147.00
2023-03-25T10:49:22.821Z,98143.00
2023-03-25T10:51:54.986Z,98130.00
2023-03-25T10:54:42.758Z,98117.00
2023-03-25T10:57:23.037Z,98108.00
2023-03-25T11:00:19.997Z,98141.00
2023-03-25T11:02:51.676Z,98142.00
2023-03-25T11:05:26.068Z,98140.00
2023-03-25T11:08:14.723Z,98127.00
2023-03-25T11:10:51.716Z,98132.00
2023-03-25T11:13:29.461Z,98133.00
2023-03-25T11:16:03.927Z,98132.00
2023-03-25T11:18:40.777Z,98124.00
2023-03-25T11:21:14.082Z,98125.00
2023-03-25T11:23:50.796Z,98137.00
2023-03-25T11:26:26.709Z,98156.00
2023-03-25T11:29:12.985Z,98130.00
2023-03-25T11:31:44.242Z,98117.00
2023-03-25T11:34:21.606Z,98112.00
2023-03-25T11:37:14.699Z,98113.00
2023-03-25T11:39:55.790Z,98109.00
2023-03-25T11:42:55.343Z,98093.00
2023-03-25T11:45:39.048Z,98092.00
2023-03-25T11:48:16.133Z,98087.00
2023-03-25T11:50:52.902Z,98084.00
2023-03-25T11:53:27.444Z,98089.00
2023-03-25T11:56:10.010Z,98087.00
2023-03-25T11:58:41.276Z,98109.00
2023-03-25T12:01:44.359Z,98087.00
2023-03-25T12:04:21.344Z,98099.00
2023-03-25T12:07:15.631Z,98076.00
2023-03-25T12:09:58.794Z,98097.00
2023-03-25T12:13:22.608Z,98106.00
2023-03-25T12:16:25.135Z,98096.00
2023-03-25T12:19:02.828Z,98095.00
2023-03-25T12:21:48.725Z,98101.00
2023-03-25T12:24:52.444Z,98108.00
2023-03-25T12:27:26.766Z,98146.00
2023-03-25T12:30:45.263Z,98117.00
2023-03-25T12:33:44.788Z,98106.00
2023-03-25T12:36:24.424Z,98124.00
2023-03-25T12:39:42.246Z,98139.00
2023-03-25T12:42:41.284Z,98132.00
2023-03-25T12:45:39.620Z,98160.00
2023-03-25T12:48:41.028Z,98163.00
2023-03-25T12:51:42.716Z,98201.00
2023-03-25T12:54:32.037Z,98219.00
2023-03-25T12:57:24.656Z,98190.00
2023-03-25T13:00:20.557Z,98183.00
2023-03-25T13:03:22.375Z,98186.00
2023-03-25T13:06:24.311Z,98173.00
2023-03-25T13:09:29.444Z,98177.00
2023-03-25T13:12:31.866Z,98154.00
2023-03-25T13:15:17.887Z,98143.00
2023-03-25T13:18:10.455Z,98144.00
2023-03-25T13:21:13.384Z,98148.00
2023-03-25T13:23:53.108Z,98158.00
2023-03-25T13:26:29.379Z,98172.00
2023-03-25T13:29:31.915Z,98153.00
2023-03-25T13:32:12.196Z,98156.00
2023-03-25T13:34:57.574Z,98142.00
2023-03-25T13:37:39.747Z,98136.00
2023-03-25T13:40:13.263Z,98142.00
2023-03-25T13:43:15.648Z,98132.00
2023-03-25T13:46:02.846Z,98128.00
2023-03-25T13:48:55.086Z,98127.00
2023-03-25T13:51:26.371Z,98141.00
2023-03-25T13:54:09.468Z,98127.00
2023-03-25T13:57:08.198Z,98119.00
2023-03-25T14:00:18.508Z,98130.00
2023-03-25T14:03:08.025Z,98120.00
2023-03-25T14:06:21.540Z,98129.00
2023-03-25T14:10:06.946Z,98146.00
2023-03-25T14:13:06.965Z,98156.00
2023-03-25T14:15:44.427Z,98185.00
2023-03-25T14:18:19.954Z,98178.00
2023-03-25T14:20:51.628Z,98201.00
2023-03-25T14:23:23.634Z,98189.00
2023-03-25T14:26:00.699Z,98199.00
2023-03-25T14:28:43.780Z,98186.00
2023-03-25T14:31:14.694Z,98169.00
2023-03-25T14:34:00.877Z,98165.00
2023-03-25T14:36:40.832Z,98160.00
2023-03-25T14:39:32.280Z,98163.00
2023-03-25T14:42:13.020Z,98154.00
2023-03-25T14:44:54.117Z,98140.00
2023-03-25T14:47:35.369Z,98150.00
2023-03-25T14:50:27.682Z,98133.00
2023-03-25T14:53:05.242Z,98120.00
2023-03-25T14:55:45.687Z,98127.00
2023-03-25T14:58:27.594Z,98109.00
2023-03-25T15:01:14.733Z,98131.00
2023-03-25T15:03:47.432Z,98118.00
2023-03-25T15:06:29.669Z,98111.00
2023-03-25T15:09:09.788Z,98112.00
2023-03-25T15:11:45.132Z,98107.00
2023-03-25T15:14:29.241Z,98102.00
2023-03-25T15:17:07.062Z,98102.00
2023-03-25T15:20:02.519Z,98099.00
2023-03-25T15:22:33.409Z,98100.00
2023-03-25T15:25:18.586Z,98096.00
2023-03-25T15:28:31.122Z,98093.00
2023-03-25T15:31:20.134Z,98094.00
2023-03-25T15:34:21.764Z,98089.00
2023-03-25T15:37:05.462Z,98095.00
2023-03-25T15:40:30.692Z,98094.00
2023-03-25T15:43:30.691Z,98094.00
2023-03-25T15:46:07.606Z,98093.00
2023-03-25T15:48:55.079Z,98084.00
2023-03-25T15:51:47.478Z,98088.00
2023-03-25T15:54:47.445Z,98105.00
2023-03-25T15:57:32.034Z,98095.00
2023-03-25T16:00:16.446Z,98100.00
2023-03-25T16:03:02.323Z,98099.00
2023-03-25T16:05:37.541Z,98099.00
2023-03-25T16:08:39.360Z,98096.00
2023-03-25T16:11:18.980Z,98104.00
2023-03-25T16:14:16.097Z,98106.00
2023-03-25T16:17:00.864Z,98107.00
2023-03-25T16:19:39.977Z,98119.00
2023-03-25T16:22:34.432Z,98118.00
2023-03-25T16:25:17.424Z,98106.00
2023-03-25T16:28:01.672Z,98123.00
2023-03-25T16:30:45.063Z,98118.00
2023-03-25T16:33:21.689Z,98123.00
2023-03-25T16:36:00.933Z,98121.00
2023-03-25T16:38:32.812Z,98123.00
2023-03-25T16:41:16.519Z,98124.00
2023-03-25T16:43:47.521Z,98122.00
2023-03-25T16:46:21.258Z,98127.00
2023-03-25T16:48:57.204Z,98110.00
2023-03-25T16:51:36.037Z,98123.00
2023-03-25T16:54:13.109Z,98106.00
2023-03-25T16:56:44.072Z,98114.00
2023-03-25T16:59:34.647Z,98148.00
2023-03-25T17:02:23.357Z,98113.00
2023-03-25T17:04:57.387Z,98118.00
2023-03-25T17:07:30.541Z,98120.00
2023-03-25T17:10:02.066Z,98128.00
2023-03-25T17:12:34.658Z,98120.00
2023-03-25T17:15:09.238Z,98134.00
2023-03-25T17:17:53.513Z,98143.00
2023-03-25T17:20:37.406Z,98133.00
2023-03-25T17:23:17.214Z,98124.00
2023-03-25T17:25:57.937Z,98136.00
2023-03-25T17:28:38.547Z,98147.00
2023-03-25T17:31:30.905Z,98161.00
2023-03-25T17:34:19.147Z,98138.00
2023-03-25T17:36:57.970Z,98147.00
2023-03-25T17:39:32.349Z,98147.00
2023-03-25T17:42:06.790Z,98134.00
2023-03-25T17:44:41.343Z,98133.00
2023-03-25T17:47:18.680Z,98145.00
2023-03-25T17:49:51.726Z,98160.00
2023-03-25T17:52:22.782Z,98166.00
2023-03-25T17:54:53.622Z,98156.00
2023-03-25T17:57:24.536Z,98151.00
2023-03-25T17:59:56.700Z,98156.00
2023-03-25T18:02:27.796Z,98158.00
2023-03-25T18:04:58.641Z,98173.00
2023-03-25T18:07:29.521Z,98178.00
2023-03-25T18:10:00.882Z,98182.00
2023-03-25T18:12:31.785Z,98195.00
2023-03-25T18:15:02.686Z,98210.00
2023-03-25T18:17:33.586Z,98209.00
2023-03-25T18:20:20.861Z,98211.00
2023-03-25T18:22:55.293Z,98203.00
2023-03-25T18:25:27.162Z,98203.00
2023-03-25T18:27:58.266Z,98219.00
2023-03-25T18:30:40.524Z,98220.00
2023-03-25T18:33:12.580Z,98222.00
2023-03-25T18:35:44.823Z,98214.00
2023-03-25T18:38:25.393Z,98214.00
2023-03-25T18:40:57.355Z,98221.00
2023-03-25T18:43:28.438Z,98219.00
2023-03-25T18:45:59.357Z,98235.00
2023-03-25T18:48:30.471Z,98228.00
2023-03-25T18:51:01.434Z,98237.00
2023-03-25T18:53:32.376Z,98245.00
2023-03-25T18:56:04.746Z,98242.00
2023-03-25T18:58:36.387Z,98251.00
2023-03-25T19:01:07.734Z,98250.00
2023-03-25T19:03:41.902Z,98251.00
2023-03-25T19:06:14.514Z,98249.00
2023-03-25T19:08:47.259Z,98249.00
2023-03-25T19:11:21.559Z,98248.00
2023-03-25T19:13:53.320Z,98245.00
2023-03-25T19:16:24.258Z,98241.00
2023-03-25T19:18:55.157Z,98248.00
2023-03-25T19:21:26.180Z,98248.00
2023-03-25T19:23:57.081Z,98248.00
2023-03-25T19:26:28.206Z,98261.00
2023-03-25T19:28:59.334Z,98282.00
2023-03-25T19:31:30.697Z,98287.00
2023-03-25T19:34:02.214Z,98286.00
2023-03-25T19:36:35.066Z,98303.00
2023-03-25T19:39:06.065Z,98310.00
2023-03-25T19:41:42.612Z,98323.00
2023-03-25T19:44:14.445Z,98317.00
2023-03-25T19:46:45.418Z,98326.00
2023-03-25T19:49:25.921Z,98329.00
2023-03-25T19:52:00.025Z,98322.00
2023-03-25T19:54:31.101Z,98317.00
2023-03-25T19:57:02.432Z,98318.00
2023-03-25T19:59:33.461Z,98318.00
2023-03-25T20:02:20.142Z,98313.00
2023-03-25T20:04:52.530Z,98320.00
2023-03-25T20:07:26.337Z,98317.00
2023-03-25T20:10:00.604Z,98309.00
2023-03-25T20:12:38.618Z,98311.00
2023-03-25T20:15:10.774Z,98306.00
2023-03-25T20:17:41.798Z,98302.00
2023-03-25T20:20:13.834Z,98296.00
2023-03-25T20:22:46.118Z,98275.00
2023-03-25T20:25:19.167Z,98289.00
2023-03-25T20:27:50.256Z,98274.00
2023-03-25T20:30:21.539Z,98287.00
2023-03-25T20:32:52.459Z,98265.00
2023-03-25T20:35:23.417Z,98266.00
2023-03-25T20:37:54.408Z,98258.00
2023-03-25T20:40:33.851Z,98265.00
2023-03-25T20:43:14.245Z,98270.00
2023-03-25T20:45:45.791Z,98271.00
2023-03-25T20:48:16.745Z,98266.00
2023-03-25T20:50:47.792Z,98267.00
2023-03-25T20:53:18.660Z,98267.00
2023-03-25T20:55:49.878Z,98262.00
2023-03-25T20:58:21.438Z,98281.00
2023-03-25T21:00:53.603Z,98272.00
2023-03-25T21:03:26.473Z,98278.00
2023-03-25T21:06:07.476Z,98269.00
2023-03-25T21:08:47.148Z,98269.00
2023-03-25T21:11:18.087Z,98269.00
2023-03-25T21:13:49.134Z,98279.00
2023-03-25T21:16:20.109Z,98265.00
2023-03-25T21:18:51.285Z,98269.00
2023-03-25T21:21:24.372Z,98284.00
2023-03-25T21:23:56.930Z,98287.00
2023-03-25T21:26:27.940Z,98307.00
2023-03-25T21:28:59.771Z,98290.00
2023-03-25T21:31:30.990Z,98284.00
2023-03-25T21:34:02.698Z,98268.00
2023-03-25T21:36:33.563Z,98264.00
2023-03-25T21:39:06.331Z,98292.00
2023-03-25T21:41:37.254Z,98278.00
2023-03-25T21:44:08.204Z,98271.00
2023-03-25T21:46:40.936Z,98288.00
2023-03-25T21:49:14.525Z,98295.00
2023-03-25T21:51:56.826Z,98303.00
2023-03-25T21:54:28.828Z,98285.00
2023-03-25T21:57:04.522Z,98275.00
2023-03-25T21:59:35.723Z,98286.00
2023-03-25T22:02:08.615Z,98294.00
2023-03-25T22:04:39.598Z,98290.00
2023-03-25T22:07:10.461Z,98283.00
2023-03-25T22:09:41.462Z,98268.00
2023-03-25T22:12:12.331Z,98267.00
2023-03-25T22:14:43.164Z,98281.00
2023-03-25T22:17:17.241Z,98278.00
2023-03-25T22:19:48.894Z,98287.00
2023-03-25T22:22:21.870Z,98289.00
2023-03-25T22:24:52.709Z,98290.00
2023-03-25T22:27:23.631Z,98308.00
2023-03-25T22:29:54.517Z,98314.00
2023-03-25T22:32:27.462Z,98319.00
2023-03-25T22:34:58.448Z,98317.00
2023-03-25T22:37:29.700Z,98319.00
2023-03-25T22:40:00.563Z,98308.00
2023-03-25T22:42:31.452Z,98323.00
2023-03-25T22:45:02.320Z,98304.00
2023-03-25T22:47:33.234Z,98328.00
2023-03-25T22:50:04.562Z,98331.00
2023-03-25T22:52:35.686Z,98312.00
2023-03-25T22:55:07.714Z,98326.00
2023-03-25T22:57:38.677Z,98329.00
2023-03-25T23:00:14.845Z,98326.00
2023-03-25T23:02:47.381Z,98317.00
2023-03-25T23:05:19.489Z,98316.00
2023-03-25T23:07:50.395Z,98318.00
2023-03-25T23:10:21.357Z,98305.00
2023-03-25T23:12:52.304Z,98310.00
2023-03-25T23:15:23.156Z,98293.00
2023-03-25T23:17:54.445Z,98290.00
2023-03-25T23:20:27.960Z,98285.00
2023-03-25T23:22:58.954Z,98274.00
2023-03-25T23:25:29.811Z,98265.00
2023-03-25T23:28:00.694Z,98278.00
2023-03-25T23:30:31.529Z,98260.00
2023-03-25T23:33:02.566Z,98263.00
2023-03-25T23:35:33.484Z,98260.00
2023-03-25T23:38:04.747Z,98256.00
2023-03-25T23:40:35.732Z,98258.00
2023-03-25T23:43:06.661Z,98256.00
2023-03-25T23:45:37.480Z,98262.00
2023-03-25T23:48:08.418Z,98255.00
2023-03-25T23:50:39.484Z,98255.00
2023-03-25T23:53:10.322Z,98257.00
2023-03-25T23:55:46.975Z,98247.00
2023-03-25T23:58:19.312Z,98251.00
